createdAt,value
2022-12-14T00:02:16.855Z,36.50
2022-12-14T00:05:02.143Z,33.53
2022-12-14T00:07:47.511Z,36.15
2022-12-14T00:10:36.910Z,35.28
2022-12-14T00:13:22.411Z,31.80
2022-12-14T00:16:16.368Z,33.20
2022-12-14T00:19:02.685Z,38.58
2022-12-14T00:21:48.065Z,32.95
2022-12-14T00:24:33.821Z,33.95
2022-12-14T00:27:19.210Z,33.55
2022-12-14T00:30:05.197Z,38.05
2022-12-14T00:32:50.650Z,37.40
2022-12-14T00:35:36.200Z,34.40
2022-12-14T00:38:21.607Z,34.70
2022-12-14T00:41:08.041Z,39.58
2022-12-14T00:43:53.453Z,40.05
2022-12-14T00:46:38.995Z,37.10
2022-12-14T00:49:24.670Z,35.00
2022-12-14T00:52:10.105Z,36.63
2022-12-14T00:54:55.521Z,37.38
2022-12-14T00:57:40.810Z,35.90
2022-12-14T01:00:26.068Z,40.88
2022-12-14T01:03:12.416Z,38.72
2022-12-14T01:05:57.992Z,35.60
2022-12-14T01:08:43.429Z,39.75
2022-12-14T01:11:28.768Z,39.85
2022-12-14T01:14:16.735Z,41.83
2022-12-14T01:17:02.170Z,44.85
2022-12-14T01:19:49.146Z,40.63
2022-12-14T01:22:34.792Z,40.83
2022-12-14T01:25:20.110Z,40.00
2022-12-14T01:28:05.862Z,40.03
2022-12-14T01:30:51.920Z,37.45
2022-12-14T01:33:37.177Z,38.38
2022-12-14T01:36:26.643Z,42.83
2022-12-14T01:39:14.141Z,40.30
2022-12-14T01:41:59.708Z,36.55
2022-12-14T01:44:44.879Z,37.08
2022-12-14T01:47:34.557Z,39.15
2022-12-14T01:50:25.717Z,37.78
2022-12-14T01:53:17.102Z,39.72
2022-12-14T01:56:04.647Z,37.47
2022-12-14T01:58:50.515Z,37.58
2022-12-14T02:01:36.205Z,39.03
2022-12-14T02:04:22.122Z,38.92
2022-12-14T02:07:08.030Z,36.42
2022-12-14T02:09:57.025Z,37.92
2022-12-14T02:12:49.461Z,35.55
2022-12-14T02:15:37.760Z,32.47
2022-12-14T02:18:27.007Z,38.15
2022-12-14T02:21:28.393Z,37.60
2022-12-14T02:24:28.300Z,34.45
2022-12-14T02:27:22.253Z,37.53
2022-12-14T02:30:21.277Z,40.95
2022-12-14T02:33:15.673Z,36.22
2022-12-14T02:36:29.026Z,38.00
2022-12-14T02:39:46.993Z,38.92
2022-12-14T02:42:45.658Z,38.50
2022-12-14T02:45:42.152Z,43.57
2022-12-14T02:48:35.896Z,38.35
2022-12-14T02:51:42.327Z,34.58
2022-12-14T02:55:03.784Z,38.30
2022-12-14T02:57:58.606Z,38.28
2022-12-14T03:00:45.102Z,37.63
2022-12-14T03:03:30.783Z,39.25
2022-12-14T03:06:26.108Z,36.60
2022-12-14T03:09:18.200Z,33.90
2022-12-14T03:12:13.257Z,38.15
2022-12-14T03:14:59.509Z,41.58
2022-12-14T03:17:49.288Z,39.25
2022-12-14T03:20:37.352Z,41.30
2022-12-14T03:23:26.879Z,37.97
2022-12-14T03:26:27.557Z,39.38
2022-12-14T03:29:20.512Z,40.58
2022-12-14T03:32:10.555Z,37.53
2022-12-14T03:35:01.749Z,37.55
2022-12-14T03:37:59.160Z,34.78
2022-12-14T03:41:23.280Z,36.22
2022-12-14T03:44:23.836Z,40.33
2022-12-14T03:47:24.456Z,34.72
2022-12-14T03:50:16.420Z,38.88
2022-12-14T03:53:26.483Z,44.50
2022-12-14T03:56:14.922Z,38.67
2022-12-14T03:59:12.613Z,45.13
2022-12-14T04:02:07.055Z,41.70
2022-12-14T04:04:59.120Z,43.78
2022-12-14T04:07:59.427Z,38.30
2022-12-14T04:11:07.865Z,33.83
2022-12-14T04:14:31.489Z,38.42
2022-12-14T04:17:41.180Z,43.45
2022-12-14T04:20:49.342Z,40.70
2022-12-14T04:23:59.729Z,25.00
2022-12-14T04:26:56.526Z,37.20
2022-12-14T04:29:57.036Z,37.30
2022-12-14T04:32:48.401Z,42.60
2022-12-14T04:35:43.595Z,40.05
2022-12-14T04:38:36.794Z,39.88
2022-12-14T04:41:27.299Z,41.25
2022-12-14T04:44:23.745Z,40.00
2022-12-14T04:47:12.538Z,41.47
2022-12-14T04:50:06.102Z,43.88
2022-12-14T04:52:59.502Z,42.97
2022-12-14T04:56:17.851Z,36.30
2022-12-14T04:59:04.006Z,42.13
2022-12-14T05:02:02.463Z,37.70
2022-12-14T05:05:11.187Z,41.67
2022-12-14T05:08:08.256Z,40.17
2022-12-14T05:11:23.199Z,38.85
2022-12-14T05:14:18.349Z,36.28
2022-12-14T05:17:08.898Z,46.50
2022-12-14T05:19:54.599Z,40.53
2022-12-14T05:22:40.866Z,35.05
2022-12-14T05:25:26.095Z,39.67
2022-12-14T05:28:12.270Z,39.78
2022-12-14T05:30:57.444Z,38.80
2022-12-14T05:33:43.071Z,31.30
2022-12-14T05:36:28.091Z,39.25
2022-12-14T05:39:14.936Z,32.67
2022-12-14T05:42:00.621Z,34.90
2022-12-14T05:44:45.813Z,34.10
2022-12-14T05:47:31.079Z,43.53
2022-12-14T05:50:16.152Z,37.17
2022-12-14T05:53:01.627Z,40.22
2022-12-14T05:55:52.749Z,41.35
2022-12-14T05:58:38.810Z,37.95
2022-12-14T06:01:24.623Z,40.72
2022-12-14T06:04:13.778Z,33.53
2022-12-14T06:06:59.534Z,37.75
2022-12-14T06:09:44.657Z,43.28
2022-12-14T06:12:30.496Z,39.08
2022-12-14T06:15:15.900Z,37.40
2022-12-14T06:18:01.153Z,36.15
2022-12-14T06:20:46.612Z,41.55
2022-12-14T06:23:31.845Z,39.95
2022-12-14T06:26:18.139Z,40.95
2022-12-14T06:29:04.357Z,35.08
2022-12-14T06:31:49.964Z,38.38
2022-12-14T06:34:38.699Z,39.40
2022-12-14T06:37:26.016Z,36.63
2022-12-14T06:40:11.689Z,35.90
2022-12-14T06:42:56.858Z,39.42
2022-12-14T06:45:42.329Z,42.72
2022-12-14T06:48:27.399Z,34.05
2022-12-14T06:51:12.743Z,34.35
2022-12-14T06:53:58.681Z,37.92
2022-12-14T06:56:46.321Z,34.38
2022-12-14T06:59:31.523Z,41.78
2022-12-14T07:02:17.117Z,41.88
2022-12-14T07:05:02.474Z,35.03
2022-12-14T07:07:47.626Z,35.65
2022-12-14T07:10:34.651Z,40.72
2022-12-14T07:13:21.216Z,33.83
2022-12-14T07:16:07.810Z,35.08
2022-12-14T07:18:56.861Z,41.60
2022-12-14T07:21:42.003Z,40.17
2022-12-14T07:24:27.449Z,35.88
2022-12-14T07:27:13.056Z,36.80
2022-12-14T07:29:58.303Z,37.08
2022-12-14T07:32:43.797Z,33.63
2022-12-14T07:35:29.035Z,34.97
2022-12-14T07:38:14.290Z,33.70
2022-12-14T07:41:08.239Z,31.75
2022-12-14T07:43:55.083Z,37.50
2022-12-14T07:46:41.031Z,33.10
2022-12-14T07:49:26.067Z,41.83
2022-12-14T07:52:11.312Z,36.63
2022-12-14T07:54:56.758Z,37.10
2022-12-14T07:57:42.217Z,37.20
2022-12-14T08:00:27.575Z,37.22
2022-12-14T08:03:12.934Z,36.47
2022-12-14T08:05:58.335Z,39.30
2022-12-14T08:08:43.981Z,42.90
2022-12-14T08:11:29.648Z,37.35
2022-12-14T08:14:18.963Z,40.50
2022-12-14T08:19:49.221Z,38.25
2022-12-14T08:22:34.709Z,38.25
2022-12-14T08:25:20.073Z,36.00
2022-12-14T08:28:05.937Z,38.65
2022-12-14T08:30:52.062Z,36.53
2022-12-14T08:33:38.721Z,35.92
2022-12-14T08:36:26.773Z,32.85
2022-12-14T08:39:13.191Z,39.42
2022-12-14T08:41:58.417Z,34.30
2022-12-14T08:44:43.896Z,39.42
2022-12-14T08:47:29.172Z,38.45
2022-12-14T08:50:14.738Z,33.85
2022-12-14T08:52:59.911Z,36.15
2022-12-14T08:55:45.783Z,35.47
2022-12-14T08:58:31.467Z,35.72
2022-12-14T09:01:20.419Z,38.75
2022-12-14T09:04:08.053Z,40.13
2022-12-14T09:06:53.430Z,37.25
2022-12-14T09:09:38.889Z,33.97
2022-12-14T09:12:24.367Z,32.83
2022-12-14T09:15:10.387Z,37.97
2022-12-14T09:17:56.067Z,34.53
2022-12-14T09:20:43.271Z,34.75
2022-12-14T09:23:30.137Z,34.55
2022-12-14T09:26:21.205Z,32.08
2022-12-14T09:29:06.825Z,37.55
2022-12-14T09:31:52.038Z,33.33
2022-12-14T09:34:37.230Z,36.95
2022-12-14T09:37:22.737Z,41.63
2022-12-14T09:40:10.761Z,49.22
2022-12-14T09:43:05.940Z,36.57
2022-12-14T09:45:54.801Z,36.80
2022-12-14T09:48:42.284Z,33.63
2022-12-14T09:51:36.515Z,36.53
2022-12-14T09:54:28.234Z,39.20
2022-12-14T09:57:19.285Z,31.48
2022-12-14T10:00:13.257Z,34.20
2022-12-14T10:03:10.440Z,33.58
2022-12-14T10:06:22.458Z,36.78
2022-12-14T10:09:36.316Z,33.10
2022-12-14T10:12:46.723Z,29.63
2022-12-14T10:15:59.986Z,30.48
2022-12-14T10:19:18.690Z,30.05
2022-12-14T10:22:12.053Z,32.45
2022-12-14T10:25:20.362Z,34.78
2022-12-14T10:28:17.731Z,33.67
2022-12-14T10:31:07.913Z,32.70
2022-12-14T10:33:57.886Z,33.15
2022-12-14T10:36:52.120Z,35.97
2022-12-14T10:39:50.890Z,43.03
2022-12-14T10:43:10.459Z,36.72
2022-12-14T10:46:13.471Z,36.45
2022-12-14T10:49:09.612Z,33.35
2022-12-14T10:52:12.236Z,32.30
2022-12-14T10:55:04.789Z,33.00
2022-12-14T10:57:50.446Z,39.28
2022-12-14T11:00:36.188Z,37.38
2022-12-14T11:03:22.173Z,37.83
2022-12-14T11:06:19.712Z,37.63
2022-12-14T11:09:21.127Z,34.38
2022-12-14T11:12:16.173Z,33.65
2022-12-14T11:15:06.420Z,36.85
2022-12-14T11:18:01.942Z,36.22
2022-12-14T11:21:02.202Z,33.67
2022-12-14T11:23:54.497Z,35.83
2022-12-14T11:26:42.316Z,34.53
2022-12-14T11:29:37.852Z,40.83
2022-12-14T11:32:24.638Z,32.75
2022-12-14T11:35:16.539Z,34.70
2022-12-14T11:38:02.230Z,39.85
2022-12-14T11:40:47.412Z,34.20
2022-12-14T11:43:40.127Z,35.30
2022-12-14T11:46:44.882Z,34.90
2022-12-14T11:49:39.584Z,33.17
2022-12-14T11:52:37.050Z,34.55
2022-12-14T11:55:27.135Z,35.67
2022-12-14T11:58:21.924Z,34.80
2022-12-14T12:01:19.024Z,34.70
2022-12-14T12:04:04.254Z,34.10
2022-12-14T12:06:50.102Z,30.70
2022-12-14T12:09:35.493Z,30.95
2022-12-14T12:12:22.288Z,29.48
2022-12-14T12:15:18.251Z,34.80
2022-12-14T12:18:28.705Z,31.98
2022-12-14T12:21:21.548Z,30.80
2022-12-14T12:24:25.677Z,27.30
2022-12-14T12:27:15.424Z,30.20
2022-12-14T12:30:20.423Z,30.48
2022-12-14T12:33:18.788Z,33.03
2022-12-14T12:36:05.730Z,34.90
2022-12-14T12:38:59.439Z,31.60
2022-12-14T12:42:03.584Z,33.15
2022-12-14T12:44:54.367Z,32.67
2022-12-14T12:48:02.556Z,29.70
2022-12-14T12:51:03.943Z,28.05
2022-12-14T12:53:55.979Z,32.38
2022-12-14T12:56:48.829Z,32.05
2022-12-14T12:59:39.714Z,35.50
2022-12-14T13:02:32.450Z,31.33
2022-12-14T13:05:45.843Z,34.78
2022-12-14T13:08:39.137Z,35.60
2022-12-14T13:11:36.103Z,29.73
2022-12-14T13:14:27.430Z,37.35
2022-12-14T13:17:32.845Z,35.00
2022-12-14T13:20:31.007Z,33.65
2022-12-14T13:23:43.705Z,30.27
2022-12-14T13:26:58.579Z,32.50
2022-12-14T13:30:10.633Z,33.47
2022-12-14T13:33:36.828Z,38.25
2022-12-14T13:36:31.452Z,32.35
2022-12-14T13:39:25.705Z,32.58
2022-12-14T13:42:27.202Z,35.88
2022-12-14T13:45:32.163Z,31.08
2022-12-14T13:48:20.302Z,32.75
2022-12-14T13:51:09.118Z,28.77
2022-12-14T13:53:59.167Z,33.90
2022-12-14T13:56:45.431Z,35.92
2022-12-14T13:59:36.602Z,37.92
2022-12-14T14:02:31.081Z,37.55
2022-12-14T14:05:18.666Z,32.95
2022-12-14T14:08:32.126Z,31.77
2022-12-14T14:11:38.999Z,33.92
2022-12-14T14:14:29.530Z,31.77
2022-12-14T14:17:35.816Z,35.22
2022-12-14T14:20:42.592Z,41.15
2022-12-14T14:23:31.065Z,36.75
2022-12-14T14:26:22.667Z,34.33
2022-12-14T14:29:26.059Z,36.33
2022-12-14T14:32:41.738Z,37.53
2022-12-14T14:35:30.417Z,40.95
2022-12-14T14:38:28.954Z,30.75
2022-12-14T14:41:23.500Z,35.55
2022-12-14T14:44:35.158Z,36.80
2022-12-14T14:47:26.841Z,40.55
2022-12-14T14:50:15.235Z,38.13
2022-12-14T14:53:12.720Z,30.95
2022-12-14T14:56:00.017Z,39.63
2022-12-14T14:58:45.585Z,36.78
2022-12-14T15:01:30.894Z,35.70
2022-12-14T15:04:23.762Z,36.28
2022-12-14T15:07:18.648Z,35.22
2022-12-14T15:10:28.154Z,42.40
2022-12-14T15:13:22.871Z,40.33
2022-12-14T15:16:21.466Z,39.35
2022-12-14T15:19:23.480Z,36.90
2022-12-14T15:22:15.181Z,43.70
2022-12-14T15:25:01.805Z,41.28
2022-12-14T15:27:47.762Z,42.55
2022-12-14T15:30:34.811Z,50.00
2022-12-14T15:33:41.528Z,43.72
2022-12-14T15:36:42.118Z,48.70
2022-12-14T15:39:35.722Z,43.00
2022-12-14T15:42:21.213Z,43.08
2022-12-14T15:45:15.076Z,43.17
2022-12-14T15:48:14.190Z,46.25
2022-12-14T15:51:10.209Z,40.47
2022-12-14T15:53:55.637Z,42.15
2022-12-14T15:56:45.066Z,50.20
2022-12-14T16:02:26.869Z,48.50
2022-12-14T16:05:20.561Z,48.95
2022-12-14T16:08:06.641Z,56.47
2022-12-14T16:10:55.793Z,49.03
2022-12-14T16:13:43.916Z,44.78
2022-12-14T16:16:29.577Z,47.17
2022-12-14T16:19:27.911Z,46.33
2022-12-14T16:22:31.831Z,47.05
2022-12-14T16:25:19.469Z,53.38
2022-12-14T16:28:29.151Z,53.33
2022-12-14T16:31:20.361Z,55.72
2022-12-14T16:34:17.301Z,49.88
2022-12-14T16:37:31.581Z,47.72
2022-12-14T16:40:33.706Z,49.93
2022-12-14T16:43:34.755Z,49.53
2022-12-14T16:46:20.846Z,50.45
2022-12-14T16:49:28.966Z,48.13
2022-12-14T16:52:32.863Z,48.17
2022-12-14T16:55:20.463Z,53.67
2022-12-14T16:58:06.242Z,56.72
2022-12-14T17:01:01.783Z,52.42
2022-12-14T17:04:10.972Z,56.90
2022-12-14T17:06:57.333Z,53.45
2022-12-14T17:09:42.613Z,56.45
2022-12-14T17:12:27.772Z,59.72
2022-12-14T17:15:18.874Z,58.75
2022-12-14T17:18:07.064Z,54.53
2022-12-14T17:20:52.366Z,60.17
2022-12-14T17:23:40.533Z,55.78
2022-12-14T17:26:31.780Z,43.83
2022-12-14T17:29:24.737Z,63.25
2022-12-14T17:32:15.438Z,63.17
2022-12-14T17:35:01.334Z,58.15
2022-12-14T17:37:47.325Z,63.00
2022-12-14T17:40:34.747Z,51.25
2022-12-14T17:43:25.458Z,63.75
2022-12-14T17:46:11.082Z,67.20
2022-12-14T17:48:58.417Z,67.00
2022-12-14T17:51:46.928Z,71.97
2022-12-14T17:54:32.926Z,67.32
2022-12-14T17:57:20.893Z,69.93
2022-12-14T18:00:25.509Z,65.88
2022-12-14T18:03:12.605Z,68.97
2022-12-14T18:05:59.201Z,72.28
2022-12-14T18:08:45.413Z,63.53
2022-12-14T18:11:31.201Z,63.03
2022-12-14T18:14:17.084Z,76.13
2022-12-14T18:17:04.376Z,69.55
2022-12-14T18:19:51.832Z,66.53
2022-12-14T18:22:37.568Z,66.63
2022-12-14T18:25:38.142Z,64.85
2022-12-14T18:28:24.020Z,71.82
2022-12-14T18:31:19.481Z,76.47
2022-12-14T18:34:05.197Z,76.30
2022-12-14T18:36:50.217Z,69.22
2022-12-14T18:39:35.633Z,77.55
2022-12-14T18:42:22.750Z,77.13
2022-12-14T18:45:28.110Z,70.97
2022-12-14T18:48:13.923Z,73.70
2022-12-14T18:50:59.984Z,72.97
2022-12-14T18:53:45.693Z,72.97
2022-12-14T18:56:31.084Z,77.85
2022-12-14T18:59:16.424Z,75.45
2022-12-14T19:02:02.176Z,76.15
2022-12-14T19:04:50.719Z,80.70
2022-12-14T19:07:36.580Z,75.03
2022-12-14T19:10:24.152Z,76.07
2022-12-14T19:13:23.409Z,75.68
2022-12-14T19:16:12.754Z,76.93
2022-12-14T19:18:59.533Z,78.53
2022-12-14T19:21:45.329Z,78.97
2022-12-14T19:24:31.142Z,73.97
2022-12-14T19:27:26.042Z,70.72
2022-12-14T19:30:22.956Z,92.60
2022-12-14T19:33:10.195Z,75.90
2022-12-14T19:35:55.660Z,73.28
2022-12-14T19:38:41.136Z,84.30
2022-12-14T19:41:26.231Z,76.28
2022-12-14T19:44:11.245Z,78.50
2022-12-14T19:46:56.786Z,80.80
2022-12-14T19:49:42.218Z,78.90
2022-12-14T19:52:27.542Z,79.93
2022-12-14T19:55:12.897Z,83.57
2022-12-14T19:57:58.059Z,79.38
2022-12-14T20:00:43.303Z,75.90
2022-12-14T20:03:29.356Z,78.03
2022-12-14T20:06:15.285Z,84.25
2022-12-14T20:09:03.062Z,80.53
2022-12-14T20:11:48.563Z,87.65
2022-12-14T20:14:34.050Z,78.57
2022-12-14T20:17:19.446Z,78.30
2022-12-14T20:20:05.455Z,79.82
2022-12-14T20:22:50.752Z,85.55
2022-12-14T20:25:36.364Z,83.32
2022-12-14T20:28:21.442Z,82.22
2022-12-14T20:31:09.670Z,82.75
2022-12-14T20:33:54.880Z,82.80
2022-12-14T20:36:40.203Z,81.88
2022-12-14T20:39:25.340Z,81.38
2022-12-14T20:42:10.881Z,85.28
2022-12-14T20:44:56.413Z,84.57
2022-12-14T20:47:41.507Z,95.75
2022-12-14T20:50:26.824Z,90.00
2022-12-14T20:53:12.539Z,82.68
2022-12-14T20:56:02.938Z,92.65
2022-12-14T20:58:48.425Z,80.57
2022-12-14T21:01:38.769Z,83.57
2022-12-14T21:04:24.252Z,85.63
2022-12-14T21:07:09.365Z,83.07
2022-12-14T21:09:54.621Z,86.68
2022-12-14T21:12:40.073Z,85.85
2022-12-14T21:15:25.583Z,83.85
2022-12-14T21:18:10.929Z,89.95
2022-12-14T21:20:56.811Z,88.47
2022-12-14T21:23:42.208Z,83.97
2022-12-14T21:26:27.592Z,80.38
2022-12-14T21:29:14.214Z,87.35
2022-12-14T21:32:00.263Z,86.85
2022-12-14T21:34:46.345Z,88.18
2022-12-14T21:37:31.440Z,93.45
2022-12-14T21:40:36.742Z,84.68
2022-12-14T21:43:22.377Z,85.28
2022-12-14T21:46:07.438Z,91.90
2022-12-14T21:48:52.936Z,88.72
2022-12-14T21:51:38.309Z,87.00
2022-12-14T21:54:25.080Z,89.13
2022-12-14T21:57:35.731Z,97.80
2022-12-14T22:00:21.553Z,87.43
2022-12-14T22:03:06.701Z,94.25
2022-12-14T22:05:51.867Z,95.40
2022-12-14T22:08:37.930Z,91.53
2022-12-14T22:11:22.970Z,98.75
2022-12-14T22:14:13.266Z,89.82
2022-12-14T22:16:58.754Z,96.10
2022-12-14T22:19:44.087Z,96.63
2022-12-14T22:22:29.279Z,91.70
2022-12-14T22:25:15.400Z,98.28
2022-12-14T22:28:00.738Z,98.53
2022-12-14T22:30:46.228Z,97.45
2022-12-14T22:33:32.148Z,87.85
2022-12-14T22:36:17.826Z,90.93
2022-12-14T22:39:03.389Z,101.15
2022-12-14T22:41:49.414Z,97.55
2022-12-14T22:44:34.512Z,95.22
2022-12-14T22:47:19.840Z,87.05
2022-12-14T22:50:05.752Z,96.75
2022-12-14T22:52:50.883Z,94.28
2022-12-14T22:55:38.974Z,86.82
2022-12-14T22:58:26.376Z,91.93
2022-12-14T23:01:13.680Z,97.25
2022-12-14T23:03:58.920Z,96.05
2022-12-14T23:06:44.907Z,90.38
2022-12-14T23:09:48.898Z,85.25
2022-12-14T23:12:52.666Z,97.03
2022-12-14T23:15:56.410Z,93.45
2022-12-14T23:19:00.266Z,102.68
2022-12-14T23:22:04.014Z,93.35
2022-12-14T23:25:07.888Z,99.15
2022-12-14T23:28:11.679Z,91.00
2022-12-14T23:31:16.370Z,107.95
2022-12-14T23:34:20.261Z,100.20
2022-12-14T23:37:24.083Z,104.00
2022-12-14T23:40:28.563Z,102.60
2022-12-14T23:43:34.962Z,103.13
2022-12-14T23:46:38.720Z,93.68
2022-12-14T23:49:42.615Z,90.07
2022-12-14T23:52:46.487Z,97.68
2022-12-14T23:55:50.219Z,90.57
2022-12-14T23:58:54.302Z,88.68
